sensor_id;sensor_type;location;lat;lon;timestamp;pressure;altitude;pressure_sealevel;temperature;humidity
54978;BME280;40873;47.522;19.106;2022-07-23T00:00:17;100241.09;;;25.54;58.15
54978;BME280;40873;47.522;19.106;2022-07-23T00:03:01;100242.44;;;25.65;57.79
54978;BME280;40873;47.522;19.106;2022-07-23T00:05:28;100224.97;;;25.61;57.18
54978;BME280;40873;47.522;19.106;2022-07-23T00:07:56;100234.41;;;25.50;57.93
54978;BME280;40873;47.522;19.106;2022-07-23T00:10:22;100234.03;;;25.53;57.50
54978;BME280;40873;47.522;19.106;2022-07-23T00:12:49;100230.16;;;25.41;57.66
54978;BME280;40873;47.522;19.106;2022-07-23T00:15:18;100230.09;;;25.34;59.10
54978;BME280;40873;47.522;19.106;2022-07-23T00:17:44;100231.69;;;25.29;59.90
54978;BME280;40873;47.522;19.106;2022-07-23T00:20:12;100232.44;;;25.23;59.76
54978;BME280;40873;47.522;19.106;2022-07-23T00:22:52;100229.44;;;25.32;58.99
54978;BME280;40873;47.522;19.106;2022-07-23T00:25:23;100234.09;;;25.24;59.65
54978;BME280;40873;47.522;19.106;2022-07-23T00:27:54;100236.38;;;25.20;59.75
54978;BME280;40873;47.522;19.106;2022-07-23T00:30:21;100236.53;;;25.33;60.27
54978;BME280;40873;47.522;19.106;2022-07-23T00:32:50;100239.06;;;25.20;59.55
54978;BME280;40873;47.522;19.106;2022-07-23T00:35:27;100244.31;;;25.07;59.52
54978;BME280;40873;47.522;19.106;2022-07-23T00:37:54;100243.66;;;25.05;59.91
54978;BME280;40873;47.522;19.106;2022-07-23T00:40:21;100246.59;;;25.25;59.85
54978;BME280;40873;47.522;19.106;2022-07-23T00:42:49;100250.81;;;24.98;60.36
54978;BME280;40873;47.522;19.106;2022-07-23T00:45:16;100255.38;;;24.82;60.75
54978;BME280;40873;47.522;19.106;2022-07-23T00:47:42;100244.41;;;24.84;61.02
54978;BME280;40873;47.522;19.106;2022-07-23T00:50:10;100248.78;;;24.70;61.05
54978;BME280;40873;47.522;19.106;2022-07-23T00:52:38;100252.69;;;24.68;61.35
54978;BME280;40873;47.522;19.106;2022-07-23T00:55:06;100253.72;;;24.67;60.07
54978;BME280;40873;47.522;19.106;2022-07-23T00:57:35;100254.72;;;24.80;60.54
54978;BME280;40873;47.522;19.106;2022-07-23T01:00:04;100258.34;;;24.73;61.30
54978;BME280;40873;47.522;19.106;2022-07-23T01:02:32;100253.16;;;24.56;60.88
54978;BME280;40873;47.522;19.106;2022-07-23T01:04:59;100254.63;;;24.59;59.54
54978;BME280;40873;47.522;19.106;2022-07-23T01:07:26;100253.41;;;24.61;60.56
54978;BME280;40873;47.522;19.106;2022-07-23T01:09:54;100244.69;;;24.74;60.41
54978;BME280;40873;47.522;19.106;2022-07-23T01:12:21;100242.66;;;24.76;59.85
54978;BME280;40873;47.522;19.106;2022-07-23T01:14:58;100248.88;;;24.62;60.65
54978;BME280;40873;47.522;19.106;2022-07-23T01:17:26;100249.72;;;24.63;60.92
54978;BME280;40873;47.522;19.106;2022-07-23T01:19:53;100250.91;;;24.60;60.88
54978;BME280;40873;47.522;19.106;2022-07-23T01:22:20;100237.44;;;24.60;60.75
54978;BME280;40873;47.522;19.106;2022-07-23T01:24:48;100242.28;;;24.65;60.85
54978;BME280;40873;47.522;19.106;2022-07-23T01:27:14;100240.81;;;24.62;61.66
54978;BME280;40873;47.522;19.106;2022-07-23T01:29:44;100245.63;;;24.52;61.97
54978;BME280;40873;47.522;19.106;2022-07-23T01:32:11;100237.81;;;24.57;61.97
54978;BME280;40873;47.522;19.106;2022-07-23T01:34:38;100240.81;;;24.62;61.67
54978;BME280;40873;47.522;19.106;2022-07-23T01:37:06;100236.06;;;24.49;61.66
54978;BME280;40873;47.522;19.106;2022-07-23T01:39:33;100235.94;;;24.43;61.50
54978;BME280;40873;47.522;19.106;2022-07-23T01:42:00;100236.75;;;24.28;61.68
54978;BME280;40873;47.522;19.106;2022-07-23T01:44:27;100241.53;;;24.41;61.63
54978;BME280;40873;47.522;19.106;2022-07-23T01:46:55;100242.78;;;24.30;62.58
54978;BME280;40873;47.522;19.106;2022-07-23T01:49:22;100242.28;;;24.27;63.08
54978;BME280;40873;47.522;19.106;2022-07-23T01:51:48;100243.16;;;24.27;63.50
54978;BME280;40873;47.522;19.106;2022-07-23T01:54:29;100239.16;;;24.23;62.87
54978;BME280;40873;47.522;19.106;2022-07-23T01:56:57;100250.13;;;24.22;63.58
54978;BME280;40873;47.522;19.106;2022-07-23T01:59:24;100240.16;;;24.08;63.68
54978;BME280;40873;47.522;19.106;2022-07-23T02:01:52;100234.38;;;24.11;63.93
54978;BME280;40873;47.522;19.106;2022-07-23T02:04:20;100239.94;;;23.94;62.94
54978;BME280;40873;47.522;19.106;2022-07-23T02:06:48;100238.78;;;23.89;62.36
54978;BME280;40873;47.522;19.106;2022-07-23T02:09:16;100234.06;;;23.91;62.75
54978;BME280;40873;47.522;19.106;2022-07-23T02:11:43;100232.03;;;23.93;62.61
54978;BME280;40873;47.522;19.106;2022-07-23T02:14:10;100219.75;;;23.90;62.37
54978;BME280;40873;47.522;19.106;2022-07-23T02:16:37;100225.97;;;23.91;62.06
54978;BME280;40873;47.522;19.106;2022-07-23T02:19:04;100221.59;;;23.90;62.10
54978;BME280;40873;47.522;19.106;2022-07-23T02:21:31;100224.41;;;23.96;61.84
54978;BME280;40873;47.522;19.106;2022-07-23T02:23:58;100230.00;;;23.95;61.59
54978;BME280;40873;47.522;19.106;2022-07-23T02:26:25;100231.47;;;23.97;61.95
54978;BME280;40873;47.522;19.106;2022-07-23T02:28:52;100229.16;;;23.94;61.34
54978;BME280;40873;47.522;19.106;2022-07-23T02:31:20;100231.66;;;23.96;60.95
54978;BME280;40873;47.522;19.106;2022-07-23T02:33:47;100233.69;;;23.94;61.02
54978;BME280;40873;47.522;19.106;2022-07-23T02:36:14;100236.41;;;23.94;61.75
54978;BME280;40873;47.522;19.106;2022-07-23T02:38:41;100240.28;;;23.91;61.43
54978;BME280;40873;47.522;19.106;2022-07-23T02:41:07;100235.72;;;23.92;61.57
54978;BME280;40873;47.522;19.106;2022-07-23T02:43:35;100240.53;;;23.82;61.61
54978;BME280;40873;47.522;19.106;2022-07-23T02:46:02;100247.78;;;23.81;61.78
54978;BME280;40873;47.522;19.106;2022-07-23T02:48:29;100243.03;;;23.83;60.19
54978;BME280;40873;47.522;19.106;2022-07-23T02:50:56;100248.44;;;23.83;60.07
54978;BME280;40873;47.522;19.106;2022-07-23T02:53:23;100237.47;;;23.85;60.22
54978;BME280;40873;47.522;19.106;2022-07-23T02:55:50;100242.06;;;23.99;62.05
54978;BME280;40873;47.522;19.106;2022-07-23T02:58:17;100245.19;;;23.88;60.97
54978;BME280;40873;47.522;19.106;2022-07-23T03:00:44;100231.31;;;23.76;60.44
54978;BME280;40873;47.522;19.106;2022-07-23T03:03:11;100235.59;;;23.85;61.85
54978;BME280;40873;47.522;19.106;2022-07-23T03:05:38;100239.06;;;23.79;61.35
54978;BME280;40873;47.522;19.106;2022-07-23T03:08:05;100235.09;;;23.67;61.58
54978;BME280;40873;47.522;19.106;2022-07-23T03:10:31;100236.13;;;23.66;61.69
54978;BME280;40873;47.522;19.106;2022-07-23T03:12:58;100240.00;;;23.63;61.33
54978;BME280;40873;47.522;19.106;2022-07-23T03:15:25;100249.19;;;23.46;62.43
54978;BME280;40873;47.522;19.106;2022-07-23T03:17:52;100247.25;;;23.32;61.58
54978;BME280;40873;47.522;19.106;2022-07-23T03:20:19;100244.00;;;23.44;61.99
54978;BME280;40873;47.522;19.106;2022-07-23T03:22:46;100242.91;;;23.31;62.09
54978;BME280;40873;47.522;19.106;2022-07-23T03:25:13;100247.19;;;23.17;62.40
54978;BME280;40873;47.522;19.106;2022-07-23T03:27:39;100245.84;;;23.13;61.18
54978;BME280;40873;47.522;19.106;2022-07-23T03:30:07;100247.94;;;23.03;61.63
54978;BME280;40873;47.522;19.106;2022-07-23T03:32:34;100252.06;;;23.13;60.95
54978;BME280;40873;47.522;19.106;2022-07-23T03:35:01;100243.66;;;23.16;60.97
54978;BME280;40873;47.522;19.106;2022-07-23T03:37:28;100246.34;;;23.16;60.64
54978;BME280;40873;47.522;19.106;2022-07-23T03:39:55;100239.25;;;23.15;60.81
54978;BME280;40873;47.522;19.106;2022-07-23T03:42:22;100246.59;;;23.30;60.11
54978;BME280;40873;47.522;19.106;2022-07-23T03:44:49;100246.72;;;23.36;60.03
54978;BME280;40873;47.522;19.106;2022-07-23T03:47:16;100246.81;;;23.51;59.44
54978;BME280;40873;47.522;19.106;2022-07-23T03:49:43;100248.47;;;23.52;60.06
54978;BME280;40873;47.522;19.106;2022-07-23T03:52:10;100248.09;;;23.55;60.98
54978;BME280;40873;47.522;19.106;2022-07-23T03:54:37;100247.06;;;23.64;59.98
54978;BME280;40873;47.522;19.106;2022-07-23T03:57:04;100247.25;;;23.63;60.13
54978;BME280;40873;47.522;19.106;2022-07-23T03:59:32;100246.06;;;23.65;60.45
54978;BME280;40873;47.522;19.106;2022-07-23T04:01:59;100243.50;;;23.72;59.26
54978;BME280;40873;47.522;19.106;2022-07-23T04:04:25;100256.13;;;23.71;59.46
54978;BME280;40873;47.522;19.106;2022-07-23T04:06:52;100251.50;;;23.80;59.33
54978;BME280;40873;47.522;19.106;2022-07-23T04:09:19;100250.59;;;23.88;58.88
54978;BME280;40873;47.522;19.106;2022-07-23T04:11:46;100254.78;;;23.90;58.93
54978;BME280;40873;47.522;19.106;2022-07-23T04:14:13;100252.38;;;23.95;59.74
54978;BME280;40873;47.522;19.106;2022-07-23T04:16:40;100251.16;;;23.98;59.05
54978;BME280;40873;47.522;19.106;2022-07-23T04:19:07;100251.16;;;23.98;59.35
54978;BME280;40873;47.522;19.106;2022-07-23T04:21:34;100255.47;;;24.07;57.55
54978;BME280;40873;47.522;19.106;2022-07-23T04:24:00;100258.34;;;24.05;58.23
54978;BME280;40873;47.522;19.106;2022-07-23T04:26:27;100260.50;;;24.10;57.27
54978;BME280;40873;47.522;19.106;2022-07-23T04:28:54;100266.28;;;24.22;56.56
54978;BME280;40873;47.522;19.106;2022-07-23T04:31:22;100257.81;;;24.25;55.98
54978;BME280;40873;47.522;19.106;2022-07-23T04:33:49;100256.34;;;24.22;55.90
54978;BME280;40873;47.522;19.106;2022-07-23T04:36:16;100254.50;;;24.23;55.51
54978;BME280;40873;47.522;19.106;2022-07-23T04:38:43;100260.22;;;24.20;55.11
54978;BME280;40873;47.522;19.106;2022-07-23T04:41:09;100262.84;;;24.13;54.81
54978;BME280;40873;47.522;19.106;2022-07-23T04:43:36;100262.66;;;24.15;54.61
54978;BME280;40873;47.522;19.106;2022-07-23T04:46:03;100265.84;;;24.33;54.69
54978;BME280;40873;47.522;19.106;2022-07-23T04:48:32;100271.09;;;24.35;54.98
54978;BME280;40873;47.522;19.106;2022-07-23T04:50:59;100261.25;;;24.42;54.22
54978;BME280;40873;47.522;19.106;2022-07-23T04:53:25;100265.41;;;24.44;53.93
54978;BME280;40873;47.522;19.106;2022-07-23T04:55:52;100271.38;;;24.54;53.54
54978;BME280;40873;47.522;19.106;2022-07-23T04:58:19;100266.56;;;24.65;54.33
54978;BME280;40873;47.522;19.106;2022-07-23T05:00:47;100270.81;;;24.44;53.59
54978;BME280;40873;47.522;19.106;2022-07-23T05:03:14;100268.66;;;24.54;53.58
54978;BME280;40873;47.522;19.106;2022-07-23T05:05:41;100267.59;;;24.64;53.21
54978;BME280;40873;47.522;19.106;2022-07-23T05:08:08;100269.63;;;24.76;52.81
54978;BME280;40873;47.522;19.106;2022-07-23T05:10:35;100265.88;;;24.92;53.24
54978;BME280;40873;47.522;19.106;2022-07-23T05:13:02;100258.53;;;25.01;51.95
54978;BME280;40873;47.522;19.106;2022-07-23T05:15:30;100259.19;;;25.18;52.62
54978;BME280;40873;47.522;19.106;2022-07-23T05:17:57;100259.25;;;25.24;52.29
54978;BME280;40873;47.522;19.106;2022-07-23T05:20:24;100263.53;;;25.33;52.50
54978;BME280;40873;47.522;19.106;2022-07-23T05:22:51;100254.81;;;25.38;51.44
54978;BME280;40873;47.522;19.106;2022-07-23T05:25:18;100265.69;;;25.59;51.36
54978;BME280;40873;47.522;19.106;2022-07-23T05:27:45;100259.59;;;25.72;50.88
54978;BME280;40873;47.522;19.106;2022-07-23T05:30:12;100254.97;;;25.87;50.15
54978;BME280;40873;47.522;19.106;2022-07-23T05:32:39;100261.31;;;26.01;49.49
54978;BME280;40873;47.522;19.106;2022-07-23T05:35:07;100260.91;;;26.04;49.70
54978;BME280;40873;47.522;19.106;2022-07-23T05:37:34;100266.63;;;26.16;50.18
54978;BME280;40873;47.522;19.106;2022-07-23T05:40:05;100261.50;;;26.28;49.84
54978;BME280;40873;47.522;19.106;2022-07-23T05:42:35;100261.63;;;26.41;48.77
54978;BME280;40873;47.522;19.106;2022-07-23T05:45:02;100257.78;;;26.50;49.05
54978;BME280;40873;47.522;19.106;2022-07-23T05:47:39;100260.31;;;26.58;48.88
54978;BME280;40873;47.522;19.106;2022-07-23T05:50:06;100254.75;;;26.66;47.26
54978;BME280;40873;47.522;19.106;2022-07-23T05:52:33;100252.06;;;26.73;46.65
54978;BME280;40873;47.522;19.106;2022-07-23T05:55:00;100255.03;;;26.78;46.74
54978;BME280;40873;47.522;19.106;2022-07-23T05:57:27;100252.53;;;26.83;46.30
54978;BME280;40873;47.522;19.106;2022-07-23T05:59:53;100258.38;;;26.87;45.55
54978;BME280;40873;47.522;19.106;2022-07-23T06:02:20;100250.88;;;26.89;45.01
54978;BME280;40873;47.522;19.106;2022-07-23T06:04:47;100252.44;;;27.04;45.39
54978;BME280;40873;47.522;19.106;2022-07-23T06:07:14;100254.38;;;27.17;46.14
54978;BME280;40873;47.522;19.106;2022-07-23T06:09:41;100258.94;;;27.17;45.80
54978;BME280;40873;47.522;19.106;2022-07-23T06:12:08;100253.56;;;27.23;46.25
54978;BME280;40873;47.522;19.106;2022-07-23T06:14:35;100240.50;;;27.40;45.61
54978;BME280;40873;47.522;19.106;2022-07-23T06:17:01;100238.44;;;27.55;44.01
54978;BME280;40873;47.522;19.106;2022-07-23T06:19:28;100237.81;;;27.67;44.15
54978;BME280;40873;47.522;19.106;2022-07-23T06:21:55;100238.06;;;27.78;45.10
54978;BME280;40873;47.522;19.106;2022-07-23T06:24:22;100231.00;;;27.84;44.14
54978;BME280;40873;47.522;19.106;2022-07-23T06:26:49;100228.69;;;27.94;43.23
54978;BME280;40873;47.522;19.106;2022-07-23T06:29:16;100228.28;;;28.04;43.05
54978;BME280;40873;47.522;19.106;2022-07-23T06:31:43;100227.84;;;28.13;45.05
54978;BME280;40873;47.522;19.106;2022-07-23T06:34:10;100231.00;;;28.24;42.33
54978;BME280;40873;47.522;19.106;2022-07-23T06:36:37;100228.47;;;28.42;42.04
54978;BME280;40873;47.522;19.106;2022-07-23T06:39:04;100232.00;;;28.49;43.07
54978;BME280;40873;47.522;19.106;2022-07-23T06:41:31;100238.22;;;28.63;42.71
54978;BME280;40873;47.522;19.106;2022-07-23T06:43:58;100229.47;;;28.67;40.99
54978;BME280;40873;47.522;19.106;2022-07-23T06:46:25;100232.75;;;28.83;40.84
54978;BME280;40873;47.522;19.106;2022-07-23T06:48:52;100232.53;;;28.91;40.50
54978;BME280;40873;47.522;19.106;2022-07-23T06:51:19;100229.16;;;29.02;42.84
54978;BME280;40873;47.522;19.106;2022-07-23T06:53:46;100234.28;;;29.17;42.45
54978;BME280;40873;47.522;19.106;2022-07-23T06:56:13;100221.69;;;29.29;42.54
54978;BME280;40873;47.522;19.106;2022-07-23T06:58:39;100224.25;;;29.17;40.83
54978;BME280;40873;47.522;19.106;2022-07-23T07:01:06;100221.53;;;29.17;40.16
54978;BME280;40873;47.522;19.106;2022-07-23T07:03:33;100222.78;;;29.21;39.59
54978;BME280;40873;47.522;19.106;2022-07-23T07:06:00;100219.38;;;29.33;39.02
54978;BME280;40873;47.522;19.106;2022-07-23T07:08:27;100226.81;;;29.51;39.13
54978;BME280;40873;47.522;19.106;2022-07-23T07:10:54;100229.22;;;29.65;39.55
54978;BME280;40873;47.522;19.106;2022-07-23T07:13:21;100216.78;;;29.76;41.33
54978;BME280;40873;47.522;19.106;2022-07-23T07:15:48;100219.41;;;29.89;38.14
54978;BME280;40873;47.522;19.106;2022-07-23T07:18:15;100210.31;;;30.02;37.66
54978;BME280;40873;47.522;19.106;2022-07-23T07:20:42;100218.16;;;30.17;38.48
54978;BME280;40873;47.522;19.106;2022-07-23T07:23:09;100212.22;;;30.26;39.28
54978;BME280;40873;47.522;19.106;2022-07-23T07:25:36;100204.13;;;30.38;41.35
54978;BME280;40873;47.522;19.106;2022-07-23T07:28:03;100202.03;;;30.40;38.27
54978;BME280;40873;47.522;19.106;2022-07-23T07:30:30;100204.72;;;30.58;38.46
54978;BME280;40873;47.522;19.106;2022-07-23T07:33:00;100206.19;;;30.61;37.37
54978;BME280;40873;47.522;19.106;2022-07-23T07:35:27;100206.19;;;30.79;38.28
54978;BME280;40873;47.522;19.106;2022-07-23T07:37:54;100194.69;;;30.96;38.89
54978;BME280;40873;47.522;19.106;2022-07-23T07:40:21;100205.84;;;31.06;38.85
54978;BME280;40873;47.522;19.106;2022-07-23T07:42:49;100197.69;;;31.24;37.51
54978;BME280;40873;47.522;19.106;2022-07-23T07:45:19;100200.81;;;31.40;36.85
54978;BME280;40873;47.522;19.106;2022-07-23T07:47:46;100201.06;;;31.50;37.17
54978;BME280;40873;47.522;19.106;2022-07-23T07:50:13;100192.91;;;31.61;37.17
54978;BME280;40873;47.522;19.106;2022-07-23T07:52:40;100200.16;;;31.68;35.82
54978;BME280;40873;47.522;19.106;2022-07-23T07:55:08;100189.50;;;31.78;36.20
54978;BME280;40873;47.522;19.106;2022-07-23T07:57:36;100190.59;;;31.88;37.88
54978;BME280;40873;47.522;19.106;2022-07-23T08:00:07;100188.97;;;31.99;37.90
54978;BME280;40873;47.522;19.106;2022-07-23T08:05:12;100184.69;;;32.38;33.03
54978;BME280;40873;47.522;19.106;2022-07-23T08:07:40;100189.69;;;32.41;33.43
54978;BME280;40873;47.522;19.106;2022-07-23T08:10:08;100200.34;;;32.43;33.14
54978;BME280;40873;47.522;19.106;2022-07-23T08:12:50;100196.75;;;32.54;32.56
54978;BME280;40873;47.522;19.106;2022-07-23T08:15:18;100194.00;;;32.66;33.13
54978;BME280;40873;47.522;19.106;2022-07-23T08:17:46;100197.69;;;32.71;32.34
54978;BME280;40873;47.522;19.106;2022-07-23T08:20:15;100199.91;;;32.98;31.18
54978;BME280;40873;47.522;19.106;2022-07-23T08:22:47;100192.84;;;33.02;31.91
54978;BME280;40873;47.522;19.106;2022-07-23T08:25:16;100187.31;;;32.97;30.96
54978;BME280;40873;47.522;19.106;2022-07-23T08:27:43;100185.44;;;33.14;31.28
54978;BME280;40873;47.522;19.106;2022-07-23T08:30:10;100193.34;;;32.99;30.67
54978;BME280;40873;47.522;19.106;2022-07-23T08:35:27;100187.19;;;33.49;31.26
54978;BME280;40873;47.522;19.106;2022-07-23T08:37:55;100187.47;;;33.36;30.51
54978;BME280;40873;47.522;19.106;2022-07-23T08:40:23;100182.06;;;33.52;30.94
54978;BME280;40873;47.522;19.106;2022-07-23T08:42:52;100188.59;;;33.51;30.59
54978;BME280;40873;47.522;19.106;2022-07-23T08:45:21;100189.94;;;33.66;30.15
54978;BME280;40873;47.522;19.106;2022-07-23T08:47:53;100192.69;;;33.83;30.07
54978;BME280;40873;47.522;19.106;2022-07-23T08:50:23;100192.47;;;34.01;29.58
54978;BME280;40873;47.522;19.106;2022-07-23T08:52:51;100186.88;;;34.13;29.22
54978;BME280;40873;47.522;19.106;2022-07-23T08:55:19;100183.03;;;34.30;29.91
54978;BME280;40873;47.522;19.106;2022-07-23T08:57:51;100184.00;;;34.41;29.63
54978;BME280;40873;47.522;19.106;2022-07-23T09:00:20;100184.88;;;34.64;29.99
54978;BME280;40873;47.522;19.106;2022-07-23T09:02:48;100177.41;;;34.59;28.50
54978;BME280;40873;47.522;19.106;2022-07-23T09:05:15;100172.69;;;34.54;27.22
54978;BME280;40873;47.522;19.106;2022-07-23T09:13:39;100161.69;;;35.20;27.44
54978;BME280;40873;47.522;19.106;2022-07-23T09:16:18;100158.66;;;35.22;27.20
54978;BME280;40873;47.522;19.106;2022-07-23T09:18:51;100168.78;;;35.43;27.20
54978;BME280;40873;47.522;19.106;2022-07-23T09:21:32;100172.81;;;35.67;26.94
54978;BME280;40873;47.522;19.106;2022-07-23T09:29:25;100163.06;;;35.50;27.00
54978;BME280;40873;47.522;19.106;2022-07-23T09:31:57;100157.03;;;35.85;26.76
54978;BME280;40873;47.522;19.106;2022-07-23T09:34:29;100163.25;;;35.70;26.94
54978;BME280;40873;47.522;19.106;2022-07-23T09:37:08;100163.47;;;35.63;27.14
54978;BME280;40873;47.522;19.106;2022-07-23T09:39:36;100160.72;;;35.95;26.61
54978;BME280;40873;47.522;19.106;2022-07-23T09:42:14;100157.50;;;36.14;26.16
54978;BME280;40873;47.522;19.106;2022-07-23T09:44:42;100159.88;;;36.42;26.27
54978;BME280;40873;47.522;19.106;2022-07-23T09:47:09;100150.94;;;36.67;25.75
54978;BME280;40873;47.522;19.106;2022-07-23T09:49:36;100151.75;;;36.68;25.92
54978;BME280;40873;47.522;19.106;2022-07-23T09:52:04;100149.28;;;36.66;26.25
54978;BME280;40873;47.522;19.106;2022-07-23T09:54:34;100146.72;;;36.49;25.69
54978;BME280;40873;47.522;19.106;2022-07-23T09:57:10;100147.66;;;36.18;25.49
54978;BME280;40873;47.522;19.106;2022-07-23T09:59:44;100142.75;;;36.30;26.00
54978;BME280;40873;47.522;19.106;2022-07-23T10:02:13;100141.81;;;36.57;25.02
54978;BME280;40873;47.522;19.106;2022-07-23T10:04:42;100146.00;;;36.74;24.93
54978;BME280;40873;47.522;19.106;2022-07-23T10:07:10;100146.53;;;36.66;24.77
54978;BME280;40873;47.522;19.106;2022-07-23T10:09:39;100142.66;;;36.62;25.03
54978;BME280;40873;47.522;19.106;2022-07-23T10:12:11;100141.88;;;36.72;24.89
54978;BME280;40873;47.522;19.106;2022-07-23T10:14:42;100141.00;;;36.61;25.62
54978;BME280;40873;47.522;19.106;2022-07-23T10:17:09;100137.56;;;36.96;25.00
54978;BME280;40873;47.522;19.106;2022-07-23T10:19:37;100137.34;;;37.34;24.56
54978;BME280;40873;47.522;19.106;2022-07-23T10:22:18;100127.38;;;36.92;24.42
54978;BME280;40873;47.522;19.106;2022-07-23T10:28:24;100127.63;;;36.80;25.49
54978;BME280;40873;47.522;19.106;2022-07-23T10:34:21;100119.84;;;36.62;25.08
54978;BME280;40873;47.522;19.106;2022-07-23T10:36:59;100112.56;;;37.18;25.39
54978;BME280;40873;47.522;19.106;2022-07-23T10:39:33;100120.81;;;37.18;24.40
54978;BME280;40873;47.522;19.106;2022-07-23T10:42:15;100113.84;;;36.85;25.56
54978;BME280;40873;47.522;19.106;2022-07-23T10:44:43;100110.91;;;37.27;24.31
54978;BME280;40873;47.522;19.106;2022-07-23T10:47:11;100124.16;;;37.46;23.89
54978;BME280;40873;47.522;19.106;2022-07-23T10:50:27;100112.28;;;36.94;24.82
54978;BME280;40873;47.522;19.106;2022-07-23T10:58:03;100103.75;;;37.88;23.79
54978;BME280;40873;47.522;19.106;2022-07-23T11:00:31;100092.63;;;38.23;23.20
54978;BME280;40873;47.522;19.106;2022-07-23T11:03:00;100089.88;;;38.28;23.09
54978;BME280;40873;47.522;19.106;2022-07-23T11:05:42;100091.34;;;37.90;23.11
54978;BME280;40873;47.522;19.106;2022-07-23T11:08:15;100089.91;;;38.13;23.24
54978;BME280;40873;47.522;19.106;2022-07-23T11:10:47;100083.25;;;38.34;23.15
54978;BME280;40873;47.522;19.106;2022-07-23T11:13:37;100087.47;;;38.11;22.92
54978;BME280;40873;47.522;19.106;2022-07-23T11:16:13;100087.78;;;37.95;23.14
54978;BME280;40873;47.522;19.106;2022-07-23T11:37:07;100054.75;;;38.99;21.89
54978;BME280;40873;47.522;19.106;2022-07-23T11:39:35;100051.03;;;39.13;21.98
54978;BME280;40873;47.522;19.106;2022-07-23T11:42:05;100051.13;;;38.59;22.28
54978;BME280;40873;47.522;19.106;2022-07-23T11:44:35;100051.75;;;38.46;22.25
54978;BME280;40873;47.522;19.106;2022-07-23T11:47:06;100041.19;;;38.63;21.05
54978;BME280;40873;47.522;19.106;2022-07-23T11:49:35;100048.53;;;38.33;21.21
54978;BME280;40873;47.522;19.106;2022-07-23T11:52:10;100044.84;;;37.68;21.91
54978;BME280;40873;47.522;19.106;2022-07-23T11:54:50;100039.88;;;37.75;21.90
54978;BME280;40873;47.522;19.106;2022-07-23T11:57:19;100040.28;;;38.23;21.40
54978;BME280;40873;47.522;19.106;2022-07-23T11:59:50;100029.75;;;38.41;20.52
54978;BME280;40873;47.522;19.106;2022-07-23T12:02:20;100040.16;;;38.54;20.48
54978;BME280;40873;47.522;19.106;2022-07-23T12:04:50;100021.56;;;38.70;20.29
54978;BME280;40873;47.522;19.106;2022-07-23T12:07:39;100023.53;;;38.64;20.14
54978;BME280;40873;47.522;19.106;2022-07-23T12:10:29;100019.22;;;38.92;21.52
54978;BME280;40873;47.522;19.106;2022-07-23T12:12:59;100008.59;;;39.43;19.71
54978;BME280;40873;47.522;19.106;2022-07-23T12:15:38;100000.25;;;39.96;21.11
54978;BME280;40873;47.522;19.106;2022-07-23T12:18:07;100001.66;;;40.18;19.52
54978;BME280;40873;47.522;19.106;2022-07-23T12:20:46;100006.91;;;38.79;20.40
54978;BME280;40873;47.522;19.106;2022-07-23T12:23:16;99998.66;;;39.08;20.31
54978;BME280;40873;47.522;19.106;2022-07-23T12:25:48;99988.13;;;39.73;20.26
54978;BME280;40873;47.522;19.106;2022-07-23T12:28:21;99997.97;;;39.27;20.12
54978;BME280;40873;47.522;19.106;2022-07-23T12:30:53;99985.84;;;38.54;20.78
54978;BME280;40873;47.522;19.106;2022-07-23T12:33:46;99983.47;;;39.11;20.56
54978;BME280;40873;47.522;19.106;2022-07-23T12:36:17;99983.75;;;39.43;19.82
54978;BME280;40873;47.522;19.106;2022-07-23T12:38:48;99983.03;;;39.33;19.71
54978;BME280;40873;47.522;19.106;2022-07-23T12:41:18;99986.13;;;39.79;19.58
54978;BME280;40873;47.522;19.106;2022-07-23T12:43:45;99982.91;;;40.15;19.08
54978;BME280;40873;47.522;19.106;2022-07-23T12:46:17;99976.94;;;40.64;18.49
54978;BME280;40873;47.522;19.106;2022-07-23T12:48:50;99977.34;;;39.96;19.37
54978;BME280;40873;47.522;19.106;2022-07-23T12:51:27;99967.69;;;40.36;18.05
54978;BME280;40873;47.522;19.106;2022-07-23T12:54:05;99966.34;;;40.52;18.51
54978;BME280;40873;47.522;19.106;2022-07-23T12:56:35;99974.47;;;39.58;18.28
54978;BME280;40873;47.522;19.106;2022-07-23T12:59:14;99959.53;;;40.07;18.04
54978;BME280;40873;47.522;19.106;2022-07-23T13:02:02;99954.50;;;41.17;17.98
54978;BME280;40873;47.522;19.106;2022-07-23T13:04:29;99960.34;;;40.64;17.83
54978;BME280;40873;47.522;19.106;2022-07-23T13:06:59;99952.94;;;41.11;17.99
54978;BME280;40873;47.522;19.106;2022-07-23T13:09:32;99958.06;;;40.52;17.44
54978;BME280;40873;47.522;19.106;2022-07-23T13:12:07;99952.63;;;41.13;16.77
54978;BME280;40873;47.522;19.106;2022-07-23T13:14:38;99954.78;;;41.29;16.72
54978;BME280;40873;47.522;19.106;2022-07-23T13:17:05;99948.34;;;40.55;17.22
54978;BME280;40873;47.522;19.106;2022-07-23T13:19:33;99958.66;;;40.49;17.54
54978;BME280;40873;47.522;19.106;2022-07-23T13:22:01;99948.25;;;39.32;19.97
54978;BME280;40873;47.522;19.106;2022-07-23T13:24:34;99940.09;;;39.69;19.05
54978;BME280;40873;47.522;19.106;2022-07-23T13:27:05;99944.81;;;39.45;18.87
54978;BME280;40873;47.522;19.106;2022-07-23T13:29:37;99938.34;;;39.55;18.95
54978;BME280;40873;47.522;19.106;2022-07-23T13:32:04;99925.59;;;40.39;18.74
54978;BME280;40873;47.522;19.106;2022-07-23T13:34:39;99928.47;;;40.34;18.56
54978;BME280;40873;47.522;19.106;2022-07-23T13:37:07;99925.41;;;40.36;18.44